sensor_id;sensor_type;location;lat;lon;timestamp;P1;durP1;ratioP1;P2;durP2;ratioP2
28455;SDS011;15682;56.742;38.866;2024-02-26T00:00:52;12.3;;;5.8;;
28455;SDS011;15682;56.742;38.866;2024-02-26T00:02:52;13.5;;;5.3;;
28455;SDS011;15682;56.742;38.866;2024-02-26T00:04:52;11.7;;;5.2;;
28455;SDS011;15682;56.742;38.866;2024-02-26T00:06:52;10.9;;;5.5;;
28455;SDS011;15682;56.742;38.866;2024-02-26T00:08:52;16.3;;;6.1;;
28455;SDS011;15682;56.742;38.866;2024-02-26T00:10:52;20.5;;;6.0;;
28455;SDS011;15682;56.742;38.866;2024-02-26T00:12:52;14.4;;;5.7;;
28455;SDS011;15682;56.742;38.866;2024-02-26T00:14:52;12.3;;;5.3;;
28455;SDS011;15682;56.742;38.866;2024-02-26T00:16:51;14.9;;;5.5;;
28455;SDS011;15682;56.742;38.866;2024-02-26T00:18:51;11.5;;;5.1;;
28455;SDS011;15682;56.742;38.866;2024-02-26T00:20:51;12.4;;;4.9;;
28455;SDS011;15682;56.742;38.866;2024-02-26T00:22:51;11.3;;;5.1;;
28455;SDS011;15682;56.742;38.866;2024-02-26T00:24:51;16.3;;;5.3;;
28455;SDS011;15682;56.742;38.866;2024-02-26T00:26:51;13.0;;;5.1;;
28455;SDS011;15682;56.742;38.866;2024-02-26T00:28:51;12.7;;;5.2;;
28455;SDS011;15682;56.742;38.866;2024-02-26T00:30:51;10.6;;;5.4;;
28455;SDS011;15682;56.742;38.866;2024-02-26T00:32:51;12.8;;;5.5;;
28455;SDS011;15682;56.742;38.866;2024-02-26T00:34:51;11.4;;;5.3;;
28455;SDS011;15682;56.742;38.866;2024-02-26T00:36:51;13.1;;;5.4;;
28455;SDS011;15682;56.742;38.866;2024-02-26T00:38:51;11.8;;;5.3;;
28455;SDS011;15682;56.742;38.866;2024-02-26T00:40:50;14.6;;;5.2;;
28455;SDS011;15682;56.742;38.866;2024-02-26T00:42:50;10.1;;;4.9;;
28455;SDS011;15682;56.742;38.866;2024-02-26T00:44:50;12.6;;;5.3;;
28455;SDS011;15682;56.742;38.866;2024-02-26T00:46:50;11.0;;;4.9;;
28455;SDS011;15682;56.742;38.866;2024-02-26T00:48:50;13.3;;;5.3;;
28455;SDS011;15682;56.742;38.866;2024-02-26T00:50:50;10.8;;;4.9;;
28455;SDS011;15682;56.742;38.866;2024-02-26T00:52:50;13.3;;;5.2;;
28455;SDS011;15682;56.742;38.866;2024-02-26T00:54:50;10.7;;;5.2;;
28455;SDS011;15682;56.742;38.866;2024-02-26T00:56:50;14.1;;;5.4;;
28455;SDS011;15682;56.742;38.866;2024-02-26T00:58:50;12.1;;;5.0;;
28455;SDS011;15682;56.742;38.866;2024-02-26T01:00:50;10.8;;;5.5;;
28455;SDS011;15682;56.742;38.866;2024-02-26T01:02:50;11.6;;;5.4;;
28455;SDS011;15682;56.742;38.866;2024-02-26T01:04:50;13.5;;;5.4;;
28455;SDS011;15682;56.742;38.866;2024-02-26T01:06:49;13.4;;;5.8;;
28455;SDS011;15682;56.742;38.866;2024-02-26T01:08:49;11.9;;;5.1;;
28455;SDS011;15682;56.742;38.866;2024-02-26T01:10:49;11.4;;;5.4;;
28455;SDS011;15682;56.742;38.866;2024-02-26T01:12:49;13.6;;;5.5;;
28455;SDS011;15682;56.742;38.866;2024-02-26T01:14:49;8.9;;;5.3;;
28455;SDS011;15682;56.742;38.866;2024-02-26T01:16:49;11.5;;;5.3;;
28455;SDS011;15682;56.742;38.866;2024-02-26T01:18:49;14.0;;;5.4;;
28455;SDS011;15682;56.742;38.866;2024-02-26T01:20:49;13.6;;;5.6;;
28455;SDS011;15682;56.742;38.866;2024-02-26T01:22:49;15.4;;;5.3;;
28455;SDS011;15682;56.742;38.866;2024-02-26T01:24:49;15.4;;;6.0;;
28455;SDS011;15682;56.742;38.866;2024-02-26T01:26:48;14.8;;;5.7;;
28455;SDS011;15682;56.742;38.866;2024-02-26T01:28:48;14.3;;;5.5;;
28455;SDS011;15682;56.742;38.866;2024-02-26T01:30:48;12.0;;;5.5;;
28455;SDS011;15682;56.742;38.866;2024-02-26T01:32:48;15.4;;;5.2;;
28455;SDS011;15682;56.742;38.866;2024-02-26T01:34:48;15.1;;;5.7;;
28455;SDS011;15682;56.742;38.866;2024-02-26T01:36:48;13.1;;;5.3;;
28455;SDS011;15682;56.742;38.866;2024-02-26T01:38:48;12.9;;;5.0;;
28455;SDS011;15682;56.742;38.866;2024-02-26T01:40:48;11.6;;;5.0;;
28455;SDS011;15682;56.742;38.866;2024-02-26T01:42:48;14.0;;;4.7;;
28455;SDS011;15682;56.742;38.866;2024-02-26T01:44:48;11.3;;;5.2;;
28455;SDS011;15682;56.742;38.866;2024-02-26T01:46:48;11.7;;;5.3;;
28455;SDS011;15682;56.742;38.866;2024-02-26T01:48:48;12.4;;;5.4;;
28455;SDS011;15682;56.742;38.866;2024-02-26T01:50:47;11.4;;;4.8;;
28455;SDS011;15682;56.742;38.866;2024-02-26T01:52:48;13.4;;;5.2;;
28455;SDS011;15682;56.742;38.866;2024-02-26T01:54:47;12.5;;;4.5;;
28455;SDS011;15682;56.742;38.866;2024-02-26T01:56:47;13.4;;;5.1;;
28455;SDS011;15682;56.742;38.866;2024-02-26T01:58:47;8.5;;;4.7;;
28455;SDS011;15682;56.742;38.866;2024-02-26T02:00:47;12.6;;;5.1;;
28455;SDS011;15682;56.742;38.866;2024-02-26T02:02:47;13.4;;;5.6;;
28455;SDS011;15682;56.742;38.866;2024-02-26T02:04:47;11.5;;;4.9;;
28455;SDS011;15682;56.742;38.866;2024-02-26T02:06:47;13.6;;;4.9;;
28455;SDS011;15682;56.742;38.866;2024-02-26T02:08:47;11.1;;;4.6;;
28455;SDS011;15682;56.742;38.866;2024-02-26T02:10:46;11.2;;;4.9;;
28455;SDS011;15682;56.742;38.866;2024-02-26T02:12:46;8.6;;;4.2;;
28455;SDS011;15682;56.742;38.866;2024-02-26T02:14:46;12.1;;;4.9;;
28455;SDS011;15682;56.742;38.866;2024-02-26T02:16:46;11.1;;;4.6;;
28455;SDS011;15682;56.742;38.866;2024-02-26T02:18:46;9.8;;;4.5;;
28455;SDS011;15682;56.742;38.866;2024-02-26T02:20:46;14.1;;;5.0;;
28455;SDS011;15682;56.742;38.866;2024-02-26T02:22:46;13.4;;;4.3;;
28455;SDS011;15682;56.742;38.866;2024-02-26T02:24:47;13.0;;;4.5;;
28455;SDS011;15682;56.742;38.866;2024-02-26T02:26:46;10.4;;;4.9;;
28455;SDS011;15682;56.742;38.866;2024-02-26T02:28:46;10.3;;;5.1;;
28455;SDS011;15682;56.742;38.866;2024-02-26T02:30:45;10.8;;;4.4;;
28455;SDS011;15682;56.742;38.866;2024-02-26T02:32:46;13.4;;;5.0;;
28455;SDS011;15682;56.742;38.866;2024-02-26T02:34:45;11.3;;;4.4;;
28455;SDS011;15682;56.742;38.866;2024-02-26T02:36:49;9.7;;;4.6;;
28455;SDS011;15682;56.742;38.866;2024-02-26T02:38:48;12.6;;;4.7;;
28455;SDS011;15682;56.742;38.866;2024-02-26T02:40:45;13.1;;;5.1;;
28455;SDS011;15682;56.742;38.866;2024-02-26T02:42:45;13.8;;;4.5;;
28455;SDS011;15682;56.742;38.866;2024-02-26T02:44:45;10.2;;;4.7;;
28455;SDS011;15682;56.742;38.866;2024-02-26T02:46:45;10.7;;;4.7;;
28455;SDS011;15682;56.742;38.866;2024-02-26T02:48:45;12.3;;;4.4;;
28455;SDS011;15682;56.742;38.866;2024-02-26T02:50:45;11.1;;;4.2;;
28455;SDS011;15682;56.742;38.866;2024-02-26T02:52:44;12.0;;;4.7;;
28455;SDS011;15682;56.742;38.866;2024-02-26T02:54:44;10.5;;;4.4;;
28455;SDS011;15682;56.742;38.866;2024-02-26T02:56:45;9.5;;;4.7;;
28455;SDS011;15682;56.742;38.866;2024-02-26T02:58:44;12.6;;;4.6;;
28455;SDS011;15682;56.742;38.866;2024-02-26T03:00:44;11.8;;;4.8;;
28455;SDS011;15682;56.742;38.866;2024-02-26T03:02:44;12.9;;;4.8;;
28455;SDS011;15682;56.742;38.866;2024-02-26T03:04:44;12.7;;;5.0;;
28455;SDS011;15682;56.742;38.866;2024-02-26T03:06:44;11.7;;;4.2;;
28455;SDS011;15682;56.742;38.866;2024-02-26T03:08:44;9.7;;;4.4;;
28455;SDS011;15682;56.742;38.866;2024-02-26T03:10:43;10.3;;;4.6;;
28455;SDS011;15682;56.742;38.866;2024-02-26T03:12:43;10.0;;;4.5;;
28455;SDS011;15682;56.742;38.866;2024-02-26T03:14:43;13.0;;;4.6;;
28455;SDS011;15682;56.742;38.866;2024-02-26T03:16:43;10.3;;;4.6;;
28455;SDS011;15682;56.742;38.866;2024-02-26T03:18:43;9.9;;;4.6;;
28455;SDS011;15682;56.742;38.866;2024-02-26T03:20:43;11.9;;;4.7;;
28455;SDS011;15682;56.742;38.866;2024-02-26T03:22:43;12.0;;;4.4;;
28455;SDS011;15682;56.742;38.866;2024-02-26T03:24:43;11.0;;;5.0;;
28455;SDS011;15682;56.742;38.866;2024-02-26T03:26:43;8.7;;;4.5;;
28455;SDS011;15682;56.742;38.866;2024-02-26T03:28:42;13.6;;;4.5;;
28455;SDS011;15682;56.742;38.866;2024-02-26T03:30:42;8.5;;;4.9;;
28455;SDS011;15682;56.742;38.866;2024-02-26T03:32:42;9.8;;;4.6;;
28455;SDS011;15682;56.742;38.866;2024-02-26T03:34:42;11.2;;;4.8;;
28455;SDS011;15682;56.742;38.866;2024-02-26T03:36:42;9.2;;;4.5;;
28455;SDS011;15682;56.742;38.866;2024-02-26T03:38:42;11.3;;;4.5;;
28455;SDS011;15682;56.742;38.866;2024-02-26T03:40:42;15.0;;;5.3;;
28455;SDS011;15682;56.742;38.866;2024-02-26T03:42:42;10.8;;;5.0;;
28455;SDS011;15682;56.742;38.866;2024-02-26T03:44:41;14.8;;;4.8;;
28455;SDS011;15682;56.742;38.866;2024-02-26T03:46:41;13.8;;;5.4;;
28455;SDS011;15682;56.742;38.866;2024-02-26T03:48:41;9.8;;;4.8;;
28455;SDS011;15682;56.742;38.866;2024-02-26T03:50:41;11.7;;;4.6;;
28455;SDS011;15682;56.742;38.866;2024-02-26T03:52:41;11.6;;;4.9;;
28455;SDS011;15682;56.742;38.866;2024-02-26T03:54:41;10.4;;;5.0;;
28455;SDS011;15682;56.742;38.866;2024-02-26T03:56:41;14.1;;;4.4;;
28455;SDS011;15682;56.742;38.866;2024-02-26T03:58:41;11.1;;;4.6;;
28455;SDS011;15682;56.742;38.866;2024-02-26T04:00:42;12.1;;;4.8;;
28455;SDS011;15682;56.742;38.866;2024-02-26T04:02:40;14.6;;;4.6;;
28455;SDS011;15682;56.742;38.866;2024-02-26T04:04:40;10.8;;;4.6;;
28455;SDS011;15682;56.742;38.866;2024-02-26T04:06:43;10.9;;;4.5;;
28455;SDS011;15682;56.742;38.866;2024-02-26T04:08:40;12.7;;;5.5;;
28455;SDS011;15682;56.742;38.866;2024-02-26T04:10:40;11.5;;;4.8;;
28455;SDS011;15682;56.742;38.866;2024-02-26T04:12:40;10.4;;;4.5;;
28455;SDS011;15682;56.742;38.866;2024-02-26T04:14:40;10.1;;;5.0;;
28455;SDS011;15682;56.742;38.866;2024-02-26T04:16:40;11.0;;;5.1;;
28455;SDS011;15682;56.742;38.866;2024-02-26T04:18:40;10.7;;;5.1;;
28455;SDS011;15682;56.742;38.866;2024-02-26T04:20:39;11.1;;;4.6;;
28455;SDS011;15682;56.742;38.866;2024-02-26T04:22:39;9.1;;;4.4;;
28455;SDS011;15682;56.742;38.866;2024-02-26T04:24:39;16.0;;;5.9;;
28455;SDS011;15682;56.742;38.866;2024-02-26T04:26:39;13.2;;;5.4;;
28455;SDS011;15682;56.742;38.866;2024-02-26T04:28:39;12.4;;;4.8;;
28455;SDS011;15682;56.742;38.866;2024-02-26T04:30:39;10.5;;;5.0;;
28455;SDS011;15682;56.742;38.866;2024-02-26T04:32:39;10.5;;;4.6;;
28455;SDS011;15682;56.742;38.866;2024-02-26T04:34:39;13.4;;;5.0;;
28455;SDS011;15682;56.742;38.866;2024-02-26T04:36:38;12.7;;;4.9;;
28455;SDS011;15682;56.742;38.866;2024-02-26T04:38:38;12.0;;;5.1;;
28455;SDS011;15682;56.742;38.866;2024-02-26T04:40:38;12.8;;;4.7;;
28455;SDS011;15682;56.742;38.866;2024-02-26T04:42:38;16.4;;;5.2;;
28455;SDS011;15682;56.742;38.866;2024-02-26T04:44:38;10.0;;;5.2;;
28455;SDS011;15682;56.742;38.866;2024-02-26T04:46:38;11.0;;;5.0;;
28455;SDS011;15682;56.742;38.866;2024-02-26T04:48:38;11.0;;;5.1;;
28455;SDS011;15682;56.742;38.866;2024-02-26T04:50:37;9.0;;;4.8;;
28455;SDS011;15682;56.742;38.866;2024-02-26T04:52:37;13.3;;;4.9;;
28455;SDS011;15682;56.742;38.866;2024-02-26T04:54:38;11.2;;;5.2;;
28455;SDS011;15682;56.742;38.866;2024-02-26T04:56:37;10.7;;;4.8;;
28455;SDS011;15682;56.742;38.866;2024-02-26T04:58:37;12.7;;;5.0;;
28455;SDS011;15682;56.742;38.866;2024-02-26T05:00:37;11.3;;;5.3;;
28455;SDS011;15682;56.742;38.866;2024-02-26T05:02:37;11.4;;;5.0;;
28455;SDS011;15682;56.742;38.866;2024-02-26T05:04:36;12.7;;;5.2;;
28455;SDS011;15682;56.742;38.866;2024-02-26T05:06:36;19.3;;;5.2;;
28455;SDS011;15682;56.742;38.866;2024-02-26T05:08:36;11.4;;;5.0;;
28455;SDS011;15682;56.742;38.866;2024-02-26T05:10:36;11.6;;;5.1;;
28455;SDS011;15682;56.742;38.866;2024-02-26T05:12:36;11.1;;;5.2;;
28455;SDS011;15682;56.742;38.866;2024-02-26T05:14:36;13.2;;;5.2;;
28455;SDS011;15682;56.742;38.866;2024-02-26T05:16:36;14.8;;;5.3;;
28455;SDS011;15682;56.742;38.866;2024-02-26T05:18:36;13.4;;;5.5;;
28455;SDS011;15682;56.742;38.866;2024-02-26T05:20:35;14.8;;;5.6;;
28455;SDS011;15682;56.742;38.866;2024-02-26T05:22:35;13.4;;;5.0;;
28455;SDS011;15682;56.742;38.866;2024-02-26T05:24:37;13.0;;;5.4;;
28455;SDS011;15682;56.742;38.866;2024-02-26T05:26:35;15.5;;;5.6;;
28455;SDS011;15682;56.742;38.866;2024-02-26T05:28:35;13.9;;;6.8;;
28455;SDS011;15682;56.742;38.866;2024-02-26T05:30:35;17.2;;;6.6;;
28455;SDS011;15682;56.742;38.866;2024-02-26T05:32:35;18.7;;;8.4;;
28455;SDS011;15682;56.742;38.866;2024-02-26T05:34:34;13.0;;;6.0;;
28455;SDS011;15682;56.742;38.866;2024-02-26T05:36:34;15.0;;;6.9;;
28455;SDS011;15682;56.742;38.866;2024-02-26T05:38:34;16.5;;;5.7;;
28455;SDS011;15682;56.742;38.866;2024-02-26T05:40:34;13.8;;;6.5;;
28455;SDS011;15682;56.742;38.866;2024-02-26T05:42:34;20.7;;;6.2;;
28455;SDS011;15682;56.742;38.866;2024-02-26T05:44:34;17.4;;;5.7;;
28455;SDS011;15682;56.742;38.866;2024-02-26T05:46:34;15.0;;;5.6;;
28455;SDS011;15682;56.742;38.866;2024-02-26T05:48:34;13.5;;;5.5;;
28455;SDS011;15682;56.742;38.866;2024-02-26T05:50:34;11.6;;;5.1;;
28455;SDS011;15682;56.742;38.866;2024-02-26T05:52:33;14.8;;;5.1;;
28455;SDS011;15682;56.742;38.866;2024-02-26T05:54:34;15.1;;;6.1;;
28455;SDS011;15682;56.742;38.866;2024-02-26T05:56:33;17.6;;;6.1;;
28455;SDS011;15682;56.742;38.866;2024-02-26T05:58:33;10.6;;;5.1;;
28455;SDS011;15682;56.742;38.866;2024-02-26T06:00:33;12.7;;;6.1;;
28455;SDS011;15682;56.742;38.866;2024-02-26T06:02:33;16.6;;;5.6;;
28455;SDS011;15682;56.742;38.866;2024-02-26T06:04:33;15.4;;;6.4;;
28455;SDS011;15682;56.742;38.866;2024-02-26T06:06:33;13.6;;;5.7;;
28455;SDS011;15682;56.742;38.866;2024-02-26T06:08:32;21.3;;;5.8;;
28455;SDS011;15682;56.742;38.866;2024-02-26T06:10:32;16.6;;;5.8;;
28455;SDS011;15682;56.742;38.866;2024-02-26T06:12:34;11.3;;;5.4;;
28455;SDS011;15682;56.742;38.866;2024-02-26T06:14:32;15.3;;;5.7;;
28455;SDS011;15682;56.742;38.866;2024-02-26T06:16:32;16.3;;;6.1;;
28455;SDS011;15682;56.742;38.866;2024-02-26T06:18:32;13.4;;;5.2;;
28455;SDS011;15682;56.742;38.866;2024-02-26T06:20:32;14.0;;;5.8;;
28455;SDS011;15682;56.742;38.866;2024-02-26T06:22:32;13.3;;;5.7;;
28455;SDS011;15682;56.742;38.866;2024-02-26T06:24:32;14.5;;;5.3;;
28455;SDS011;15682;56.742;38.866;2024-02-26T06:26:32;15.0;;;5.8;;
28455;SDS011;15682;56.742;38.866;2024-02-26T06:28:31;10.6;;;5.3;;
28455;SDS011;15682;56.742;38.866;2024-02-26T06:30:32;11.8;;;5.3;;
28455;SDS011;15682;56.742;38.866;2024-02-26T06:32:31;15.5;;;5.7;;
28455;SDS011;15682;56.742;38.866;2024-02-26T06:34:31;12.7;;;5.6;;
28455;SDS011;15682;56.742;38.866;2024-02-26T06:36:31;12.2;;;5.7;;
28455;SDS011;15682;56.742;38.866;2024-02-26T06:38:31;14.0;;;6.6;;
28455;SDS011;15682;56.742;38.866;2024-02-26T06:40:31;11.9;;;5.9;;
28455;SDS011;15682;56.742;38.866;2024-02-26T06:42:31;16.1;;;7.1;;
28455;SDS011;15682;56.742;38.866;2024-02-26T06:44:31;16.9;;;6.5;;
28455;SDS011;15682;56.742;38.866;2024-02-26T06:46:30;17.7;;;6.2;;
28455;SDS011;15682;56.742;38.866;2024-02-26T06:48:30;13.6;;;5.5;;
28455;SDS011;15682;56.742;38.866;2024-02-26T06:50:30;18.5;;;7.0;;
28455;SDS011;15682;56.742;38.866;2024-02-26T06:52:30;15.0;;;5.7;;
28455;SDS011;15682;56.742;38.866;2024-02-26T06:54:30;16.6;;;5.8;;
28455;SDS011;15682;56.742;38.866;2024-02-26T06:56:30;15.2;;;6.4;;
28455;SDS011;15682;56.742;38.866;2024-02-26T06:58:30;11.3;;;5.6;;
28455;SDS011;15682;56.742;38.866;2024-02-26T07:00:30;10.1;;;5.3;;
28455;SDS011;15682;56.742;38.866;2024-02-26T07:02:30;13.1;;;5.1;;
28455;SDS011;15682;56.742;38.866;2024-02-26T07:04:30;13.1;;;5.6;;
28455;SDS011;15682;56.742;38.866;2024-02-26T07:06:30;12.4;;;5.4;;
28455;SDS011;15682;56.742;38.866;2024-02-26T07:08:29;10.7;;;5.0;;
28455;SDS011;15682;56.742;38.866;2024-02-26T07:10:29;11.0;;;5.4;;
28455;SDS011;15682;56.742;38.866;2024-02-26T07:12:29;19.8;;;5.0;;
28455;SDS011;15682;56.742;38.866;2024-02-26T07:14:29;15.8;;;5.2;;
28455;SDS011;15682;56.742;38.866;2024-02-26T07:16:29;16.0;;;5.2;;
28455;SDS011;15682;56.742;38.866;2024-02-26T07:18:29;11.8;;;5.3;;
28455;SDS011;15682;56.742;38.866;2024-02-26T07:20:29;18.1;;;5.7;;
28455;SDS011;15682;56.742;38.866;2024-02-26T07:22:29;10.5;;;5.2;;
28455;SDS011;15682;56.742;38.866;2024-02-26T07:24:29;13.2;;;5.6;;
28455;SDS011;15682;56.742;38.866;2024-02-26T07:26:29;10.8;;;5.5;;
28455;SDS011;15682;56.742;38.866;2024-02-26T07:28:29;20.5;;;7.4;;
28455;SDS011;15682;56.742;38.866;2024-02-26T07:30:28;14.1;;;5.8;;
28455;SDS011;15682;56.742;38.866;2024-02-26T07:32:28;13.4;;;5.5;;
28455;SDS011;15682;56.742;38.866;2024-02-26T07:34:28;12.9;;;5.5;;
28455;SDS011;15682;56.742;38.866;2024-02-26T07:36:28;11.5;;;5.2;;
28455;SDS011;15682;56.742;38.866;2024-02-26T07:38:28;13.3;;;5.8;;
28455;SDS011;15682;56.742;38.866;2024-02-26T07:40:28;12.3;;;5.5;;
28455;SDS011;15682;56.742;38.866;2024-02-26T07:42:28;13.0;;;5.8;;
28455;SDS011;15682;56.742;38.866;2024-02-26T07:44:28;14.9;;;6.2;;
28455;SDS011;15682;56.742;38.866;2024-02-26T07:46:28;10.7;;;5.8;;
28455;SDS011;15682;56.742;38.866;2024-02-26T07:48:28;19.8;;;7.4;;
28455;SDS011;15682;56.742;38.866;2024-02-26T07:50:28;14.5;;;6.2;;
28455;SDS011;15682;56.742;38.866;2024-02-26T07:52:28;16.8;;;6.6;;
28455;SDS011;15682;56.742;38.866;2024-02-26T07:54:27;19.0;;;6.2;;
28455;SDS011;15682;56.742;38.866;2024-02-26T07:56:27;14.1;;;5.6;;
28455;SDS011;15682;56.742;38.866;2024-02-26T07:58:27;18.3;;;5.9;;
28455;SDS011;15682;56.742;38.866;2024-02-26T08:00:27;14.5;;;6.2;;
28455;SDS011;15682;56.742;38.866;2024-02-26T08:02:27;13.7;;;5.8;;
28455;SDS011;15682;56.742;38.866;2024-02-26T08:04:27;14.0;;;5.7;;
28455;SDS011;15682;56.742;38.866;2024-02-26T08:06:27;11.7;;;5.7;;
28455;SDS011;15682;56.742;38.866;2024-02-26T08:08:27;13.9;;;5.6;;
28455;SDS011;15682;56.742;38.866;2024-02-26T08:10:27;12.3;;;5.6;;
28455;SDS011;15682;56.742;38.866;2024-02-26T08:12:27;14.4;;;5.9;;
28455;SDS011;15682;56.742;38.866;2024-02-26T08:14:27;12.6;;;5.8;;
28455;SDS011;15682;56.742;38.866;2024-02-26T08:16:27;15.9;;;5.8;;
28455;SDS011;15682;56.742;38.866;2024-02-26T08:18:26;16.3;;;5.6;;
28455;SDS011;15682;56.742;38.866;2024-02-26T08:20:26;17.1;;;5.9;;
28455;SDS011;15682;56.742;38.866;2024-02-26T08:22:26;15.7;;;6.1;;
28455;SDS011;15682;56.742;38.866;2024-02-26T08:24:26;16.9;;;7.4;;
28455;SDS011;15682;56.742;38.866;2024-02-26T08:26:26;16.9;;;7.1;;
28455;SDS011;15682;56.742;38.866;2024-02-26T08:28:26;15.9;;;6.6;;
28455;SDS011;15682;56.742;38.866;2024-02-26T08:30:26;11.5;;;5.9;;
28455;SDS011;15682;56.742;38.866;2024-02-26T08:32:26;16.9;;;6.4;;
28455;SDS011;15682;56.742;38.866;2024-02-26T08:34:26;19.5;;;6.0;;
28455;SDS011;15682;56.742;38.866;2024-02-26T08:36:26;22.4;;;6.5;;
28455;SDS011;15682;56.742;38.866;2024-02-26T08:38:26;16.0;;;5.8;;
28455;SDS011;15682;56.742;38.866;2024-02-26T08:40:25;12.3;;;5.6;;
28455;SDS011;15682;56.742;38.866;2024-02-26T08:42:25;12.0;;;5.7;;
28455;SDS011;15682;56.742;38.866;2024-02-26T08:44:25;16.2;;;5.7;;
28455;SDS011;15682;56.742;38.866;2024-02-26T08:46:25;14.9;;;5.9;;
28455;SDS011;15682;56.742;38.866;2024-02-26T08:48:25;16.2;;;6.6;;
28455;SDS011;15682;56.742;38.866;2024-02-26T08:50:25;13.7;;;6.0;;
28455;SDS011;15682;56.742;38.866;2024-02-26T08:52:25;16.9;;;6.4;;
28455;SDS011;15682;56.742;38.866;2024-02-26T08:54:25;18.2;;;6.2;;
28455;SDS011;15682;56.742;38.866;2024-02-26T08:56:25;14.4;;;7.1;;
28455;SDS011;15682;56.742;38.866;2024-02-26T08:58:25;13.6;;;6.5;;
28455;SDS011;15682;56.742;38.866;2024-02-26T09:00:25;12.6;;;5.7;;
28455;SDS011;15682;56.742;38.866;2024-02-26T09:02:25;13.0;;;5.7;;
28455;SDS011;15682;56.742;38.866;2024-02-26T09:04:25;11.9;;;5.8;;
28455;SDS011;15682;56.742;38.866;2024-02-26T09:06:25;14.4;;;6.5;;
28455;SDS011;15682;56.742;38.866;2024-02-26T09:08:24;13.6;;;6.1;;
28455;SDS011;15682;56.742;38.866;2024-02-26T09:10:24;13.7;;;5.6;;
28455;SDS011;15682;56.742;38.866;2024-02-26T09:12:24;12.1;;;5.6;;
28455;SDS011;15682;56.742;38.866;2024-02-26T09:14:24;14.8;;;6.0;;
28455;SDS011;15682;56.742;38.866;2024-02-26T09:16:24;14.6;;;5.4;;
28455;SDS011;15682;56.742;38.866;2024-02-26T09:18:24;13.6;;;5.6;;
28455;SDS011;15682;56.742;38.866;2024-02-26T09:20:24;15.3;;;5.4;;
28455;SDS011;15682;56.742;38.866;2024-02-26T09:22:24;15.1;;;5.5;;
28455;SDS011;15682;56.742;38.866;2024-02-26T09:24:24;13.9;;;5.7;;
28455;SDS011;15682;56.742;38.866;2024-02-26T09:26:24;16.9;;;5.7;;
28455;SDS011;15682;56.742;38.866;2024-02-26T09:28:24;14.0;;;5.7;;
28455;SDS011;15682;56.742;38.866;2024-02-26T09:30:24;13.4;;;5.7;;
28455;SDS011;15682;56.742;38.866;2024-02-26T09:32:24;16.7;;;6.0;;
28455;SDS011;15682;56.742;38.866;2024-02-26T09:34:24;16.1;;;5.6;;
28455;SDS011;15682;56.742;38.866;2024-02-26T09:36:24;13.9;;;5.8;;
28455;SDS011;15682;56.742;38.866;2024-02-26T09:38:24;13.1;;;5.8;;
28455;SDS011;15682;56.742;38.866;2024-02-26T09:40:24;15.0;;;6.4;;
28455;SDS011;15682;56.742;38.866;2024-02-26T09:42:24;12.5;;;5.7;;
28455;SDS011;15682;56.742;38.866;2024-02-26T09:44:23;15.1;;;6.4;;
28455;SDS011;15682;56.742;38.866;2024-02-26T09:46:23;15.6;;;6.7;;
28455;SDS011;15682;56.742;38.866;2024-02-26T09:48:23;16.7;;;6.6;;
28455;SDS011;15682;56.742;38.866;2024-02-26T09:50:23;17.5;;;6.8;;
28455;SDS011;15682;56.742;38.866;2024-02-26T09:52:23;18.6;;;6.2;;
28455;SDS011;15682;56.742;38.866;2024-02-26T09:54:23;14.6;;;6.1;;
28455;SDS011;15682;56.742;38.866;2024-02-26T09:56:23;20.2;;;6.7;;
28455;SDS011;15682;56.742;38.866;2024-02-26T09:58:23;18.0;;;6.9;;
28455;SDS011;15682;56.742;38.866;2024-02-26T10:00:23;17.7;;;7.2;;
28455;SDS011;15682;56.742;38.866;2024-02-26T10:02:23;16.2;;;6.2;;
28455;SDS011;15682;56.742;38.866;2024-02-26T10:04:23;14.7;;;6.9;;
28455;SDS011;15682;56.742;38.866;2024-02-26T10:06:23;13.8;;;6.5;;
28455;SDS011;15682;56.742;38.866;2024-02-26T10:08:23;17.1;;;6.6;;
28455;SDS011;15682;56.742;38.866;2024-02-26T10:10:23;18.0;;;6.1;;
28455;SDS011;15682;56.742;38.866;2024-02-26T10:12:23;17.2;;;6.3;;
28455;SDS011;15682;56.742;38.866;2024-02-26T10:14:23;18.9;;;6.1;;
28455;SDS011;15682;56.742;38.866;2024-02-26T10:16:23;15.3;;;6.0;;
28455;SDS011;15682;56.742;38.866;2024-02-26T10:18:23;15.2;;;6.4;;
28455;SDS011;15682;56.742;38.866;2024-02-26T10:20:23;15.0;;;6.2;;
28455;SDS011;15682;56.742;38.866;2024-02-26T10:22:22;14.7;;;6.4;;
28455;SDS011;15682;56.742;38.866;2024-02-26T10:24:22;20.4;;;7.5;;
28455;SDS011;15682;56.742;38.866;2024-02-26T10:26:22;25.0;;;7.6;;
28455;SDS011;15682;56.742;38.866;2024-02-26T10:28:22;16.4;;;6.3;;
28455;SDS011;15682;56.742;38.866;2024-02-26T10:30:22;19.3;;;7.2;;
28455;SDS011;15682;56.742;38.866;2024-02-26T10:32:22;19.6;;;7.3;;
28455;SDS011;15682;56.742;38.866;2024-02-26T10:34:22;19.8;;;7.0;;
28455;SDS011;15682;56.742;38.866;2024-02-26T10:36:22;15.3;;;6.6;;
28455;SDS011;15682;56.742;38.866;2024-02-26T10:38:22;22.0;;;7.4;;
28455;SDS011;15682;56.742;38.866;2024-02-26T10:40:22;16.3;;;6.6;;
28455;SDS011;15682;56.742;38.866;2024-02-26T10:42:22;13.7;;;5.8;;
28455;SDS011;15682;56.742;38.866;2024-02-26T10:44:22;16.1;;;5.7;;
28455;SDS011;15682;56.742;38.866;2024-02-26T10:46:22;17.6;;;6.5;;
28455;SDS011;15682;56.742;38.866;2024-02-26T10:48:22;16.7;;;6.3;;
28455;SDS011;15682;56.742;38.866;2024-02-26T10:50:22;15.2;;;6.4;;
28455;SDS011;15682;56.742;38.866;2024-02-26T10:52:22;19.0;;;6.4;;
28455;SDS011;15682;56.742;38.866;2024-02-26T10:54:22;14.9;;;6.2;;
28455;SDS011;15682;56.742;38.866;2024-02-26T10:56:22;19.7;;;7.4;;
28455;SDS011;15682;56.742;38.866;2024-02-26T10:58:21;15.5;;;6.0;;
28455;SDS011;15682;56.742;38.866;2024-02-26T11:00:21;11.9;;;5.9;;
28455;SDS011;15682;56.742;38.866;2024-02-26T11:02:21;13.8;;;5.6;;
28455;SDS011;15682;56.742;38.866;2024-02-26T11:04:21;17.2;;;6.1;;
28455;SDS011;15682;56.742;38.866;2024-02-26T11:06:22;17.6;;;6.4;;
28455;SDS011;15682;56.742;38.866;2024-02-26T11:08:21;18.5;;;5.8;;
28455;SDS011;15682;56.742;38.866;2024-02-26T11:10:21;16.0;;;5.9;;
28455;SDS011;15682;56.742;38.866;2024-02-26T11:12:21;18.7;;;5.5;;
28455;SDS011;15682;56.742;38.866;2024-02-26T11:14:21;14.8;;;6.0;;
28455;SDS011;15682;56.742;38.866;2024-02-26T11:16:21;13.6;;;5.9;;
28455;SDS011;15682;56.742;38.866;2024-02-26T11:18:21;14.5;;;5.6;;
28455;SDS011;15682;56.742;38.866;2024-02-26T11:20:21;17.0;;;5.7;;
28455;SDS011;15682;56.742;38.866;2024-02-26T11:22:21;13.8;;;5.5;;
28455;SDS011;15682;56.742;38.866;2024-02-26T11:24:21;18.7;;;5.9;;
28455;SDS011;15682;56.742;38.866;2024-02-26T11:26:21;17.0;;;5.6;;
28455;SDS011;15682;56.742;38.866;2024-02-26T11:28:21;17.5;;;7.3;;
28455;SDS011;15682;56.742;38.866;2024-02-26T11:30:21;17.5;;;6.2;;
28455;SDS011;15682;56.742;38.866;2024-02-26T11:32:21;16.8;;;5.8;;
28455;SDS011;15682;56.742;38.866;2024-02-26T11:34:21;15.4;;;5.6;;
28455;SDS011;15682;56.742;38.866;2024-02-26T11:36:21;15.7;;;6.1;;
28455;SDS011;15682;56.742;38.866;2024-02-26T11:38:21;19.2;;;6.4;;
28455;SDS011;15682;56.742;38.866;2024-02-26T11:40:21;13.6;;;5.9;;
28455;SDS011;15682;56.742;38.866;2024-02-26T11:42:23;14.0;;;5.6;;
28455;SDS011;15682;56.742;38.866;2024-02-26T11:44:28;12.6;;;5.7;;
28455;SDS011;15682;56.742;38.866;2024-02-26T11:46:28;17.8;;;7.1;;
28455;SDS011;15682;56.742;38.866;2024-02-26T11:48:21;15.9;;;6.5;;
28455;SDS011;15682;56.742;38.866;2024-02-26T11:50:32;17.2;;;5.6;;
28455;SDS011;15682;56.742;38.866;2024-02-26T11:52:20;14.4;;;6.2;;
28455;SDS011;15682;56.742;38.866;2024-02-26T11:56:21;20.5;;;6.1;;
28455;SDS011;15682;56.742;38.866;2024-02-26T11:58:21;16.6;;;6.0;;
28455;SDS011;15682;56.742;38.866;2024-02-26T12:00:21;13.0;;;5.5;;
28455;SDS011;15682;56.742;38.866;2024-02-26T12:04:21;16.6;;;5.9;;
28455;SDS011;15682;56.742;38.866;2024-02-26T12:06:20;14.6;;;5.6;;